Finlandia — OJPP — position and weather

sailwx.info

Track history (hours):
 
Tides and Currents Weather Stations Pressure Air Temp Water Temp Dewpoint Dewpoint Depression Visibility Wind Speed Wind Dir Waves Ship Positions

Finlandia

Last reported at 2014-Jul-28 15:05 UTC. Time now 2014-Jul-28 16:25 UTC.
Position N 59°29' E 024°46'.

Length 175 m; draft 7 m.

Type: Passenger vessel. MMSI: 230628000.

Date/timePositionNaut miles runAvg speedWind from/ knotsBaromVisibWave heightAir tempDewpointWater temp
2014-Jul-28 15:05N 59°29' E 024°46'917.9
2014-Jul-28 14:33N 59°38' E 024°40'1817.6
2014-Jul-28 13:33N 59°54' E 024°52'1515.0
2014-Jul-28 12:34N 60°09' E 024°55'0 0.1
2014-Jul-28 11:32N 60°09' E 024°55'1313.7
2014-Jul-28 10:34N 59°56' E 024°53'20 5.7
2014-Jul-28 07:08N 59°37' E 024°40'1220.4
2014-Jul-28 06:34N 59°49' E 024°46'2019.8
2014-Jul-28 05:34N 60°08' E 024°54'1 1.3
2014-Jul-28 04:31N 60°09' E 024°55'0 0.0
2014-Jul-28 03:31N 60°09' E 024°55'0 0.0
2014-Jul-28 02:31N 60°09' E 024°55'0 0.0
2014-Jul-28 01:28N 60°09' E 024°55'0 0.0
2014-Jul-28 00:31N 60°09' E 024°55'0 0.0
2014-Jul-27 23:31N 60°09' E 024°55'0 0.0
2014-Jul-27 22:31N 60°09' E 024°55'0 0.0
2014-Jul-27 21:31N 60°09' E 024°55'0 0.0
2014-Jul-27 20:31N 60°09' E 024°55'0 0.0
2014-Jul-27 19:31N 60°09' E 024°55'0 0.0
2014-Jul-27 18:34N 60°09' E 024°55'1919.3
2014-Jul-27 17:34N 59°50' E 024°50'23 9.6
2014-Jul-27 15:12N 59°27' E 024°47'1116.7
2014-Jul-27 14:33N 59°37' E 024°40'1817.5
2014-Jul-27 13:33N 59°54' E 024°52'1515.1
2014-Jul-27 12:34N 60°09' E 024°55'0 0.3
2014-Jul-27 11:33N 60°09' E 024°55'1313.5
2014-Jul-27 10:33N 59°56' E 024°52'2120.7
2014-Jul-27 09:33N 59°36' E 024°41'8 3.8
2014-Jul-27 07:33N 59°29' E 024°46'2019.7
2014-Jul-27 06:34N 59°48' E 024°46'2019.9
2014-Jul-27 05:33N 60°08' E 024°54'2 1.7
2014-Jul-27 04:33N 60°09' E 024°55'0 0.0
2014-Jul-27 03:33N 60°09' E 024°55'0 0.0
2014-Jul-27 02:33N 60°09' E 024°55'0 0.0
2014-Jul-27 01:33N 60°09' E 024°55'0 0.0
2014-Jul-27 00:33N 60°09' E 024°55'0 0.0
2014-Jul-26 23:33N 60°09' E 024°55'0 0.0
2014-Jul-26 22:33N 60°09' E 024°55'0 0.0
2014-Jul-26 21:33N 60°09' E 024°55'0 0.0
2014-Jul-26 20:33N 60°09' E 024°55'0 0.0
2014-Jul-26 19:33N 60°09' E 024°55'0 0.0
2014-Jul-26 18:33N 60°09' E 024°55'1918.6
2014-Jul-26 17:33N 59°51' E 024°48'2322.7
2014-Jul-26 16:33N 59°28' E 024°46'1 1.2
2014-Jul-26 15:19N 59°27' E 024°46'1114.5
2014-Jul-26 14:33N 59°37' E 024°40'1716.9
2014-Jul-26 13:34N 59°53' E 024°52'1615.6
2014-Jul-26 12:33N 60°09' E 024°54'1 0.7
2014-Jul-26 11:32N 60°09' E 024°55'1313.1
2014-Jul-26 10:33N 59°56' E 024°53'2120.7
2014-Jul-26 09:33N 59°37' E 024°41'7 3.3
2014-Jul-26 07:33N 59°30' E 024°45'1919.5
2014-Jul-26 06:33N 59°50' E 024°47'1919.2
2014-Jul-26 05:34N 60°08' E 024°54'1 0.9
2014-Jul-26 04:32N 60°09' E 024°55'0 0.0
2014-Jul-26 03:32N 60°09' E 024°55'0 0.0
2014-Jul-26 02:32N 60°09' E 024°55'0 0.0
2014-Jul-26 01:32N 60°09' E 024°55'0 0.0
2014-Jul-26 00:32N 60°09' E 024°55'0 0.0
2014-Jul-25 23:32N 60°09' E 024°55'0 0.0
2014-Jul-25 22:32N 60°09' E 024°55'0 0.0
2014-Jul-25 21:32N 60°09' E 024°55'0 0.0
2014-Jul-25 20:26N 60°09' E 024°55'0 0.0
2014-Jul-25 19:32N 60°09' E 024°55'0 0.2
2014-Jul-25 18:33N 60°09' E 024°55'2120.8
2014-Jul-25 17:34N 59°49' E 024°45'2221.7
2014-Jul-25 16:33N 59°27' E 024°47'0 0.4
2014-Jul-25 15:21N 59°27' E 024°46'1113.7
2014-Jul-25 14:33N 59°37' E 024°40'1817.0
2014-Jul-25 13:31N 59°54' E 024°51'1515.6
2014-Jul-25 12:33N 60°09' E 024°54'1 0.7
2014-Jul-25 11:32N 60°09' E 024°55'1312.8
2014-Jul-25 10:33N 59°57' E 024°53'2120.8
2014-Jul-25 09:32N 59°37' E 024°41'5 2.5
2014-Jul-25 07:33N 59°32' E 024°43'1919.7
2014-Jul-25 06:33N 59°51' E 024°48'1818.2
2014-Jul-25 05:33N 60°09' E 024°55'0 0.5
2014-Jul-25 04:32N 60°09' E 024°55'0 0.0
2014-Jul-25 03:32N 60°09' E 024°55'0 0.0
2014-Jul-25 02:32N 60°09' E 024°55'0 0.0
2014-Jul-25 01:32N 60°09' E 024°55'0 0.0
2014-Jul-25 00:32N 60°09' E 024°55'0 0.0
2014-Jul-24 23:32N 60°09' E 024°55'0 0.0
2014-Jul-24 22:32N 60°09' E 024°55'0 0.0
2014-Jul-24 21:32N 60°09' E 024°55'0 0.0
2014-Jul-24 20:32N 60°09' E 024°55'0 0.0
2014-Jul-24 19:32N 60°09' E 024°55'2 2.6
2014-Jul-24 18:33N 60°07' E 024°54'2626.4
2014-Jul-24 17:33N 59°41' E 024°45'14 5.8
2014-Jul-24 15:13N 59°27' E 024°47'1117.2
2014-Jul-24 14:34N 59°38' E 024°40'1717.3
2014-Jul-24 13:34N 59°54' E 024°52'1514.9
2014-Jul-24 12:33N 60°09' E 024°55'0 0.2
2014-Jul-24 11:32N 60°09' E 024°55'1312.8
2014-Jul-24 10:34N 59°57' E 024°53'2120.8
2014-Jul-24 09:34N 59°37' E 024°41'7 3.2
2014-Jul-24 07:31N 59°31' E 024°44'2020.6
2014-Jul-24 06:32N 59°51' E 024°48'1918.8
2014-Jul-24 05:33N 60°09' E 024°55'0 0.4
2014-Jul-24 04:32N 60°09' E 024°55'0 0.0
2014-Jul-24 03:32N 60°09' E 024°55'0 0.0
2014-Jul-24 02:32N 60°09' E 024°55'0 0.0
2014-Jul-24 01:32N 60°09' E 024°55'0 0.0
2014-Jul-24 00:32N 60°09' E 024°55'0 0.0
2014-Jul-23 23:32N 60°09' E 024°55'0 0.0
2014-Jul-23 22:32N 60°09' E 024°55'0 0.0
2014-Jul-23 21:32N 60°09' E 024°55'0 0.0
2014-Jul-23 20:32N 60°09' E 024°55'0 0.0
2014-Jul-23 19:32N 60°09' E 024°55'0 0.3
2014-Jul-23 18:33N 60°09' E 024°55'2120.6
2014-Jul-23 17:31N 59°48' E 024°49'6 1.4
2014-Jul-23 13:33N 59°53' E 024°51'1615.8
2014-Jul-23 12:33N 60°09' E 024°54'1 0.6
2014-Jul-23 11:28N 60°09' E 024°55'16 3.2
2014-Jul-23 06:28N 59°53' E 024°51'1617.1
2014-Jul-23 05:33N 60°09' E 024°55'0 0.2
2014-Jul-23 04:32N 60°09' E 024°55'0 0.0
2014-Jul-23 03:32N 60°09' E 024°55'0 0.0
2014-Jul-23 02:32N 60°09' E 024°55'0 0.0
2014-Jul-23 01:32N 60°09' E 024°55'0 0.0
2014-Jul-23 00:32N 60°09' E 024°55'0 0.0
2014-Jul-22 23:32N 60°09' E 024°55'0 0.0
2014-Jul-22 22:32N 60°09' E 024°55'0 0.0
2014-Jul-22 21:32N 60°09' E 024°55'0 0.0
2014-Jul-22 20:29N 60°09' E 024°55'0 0.0
2014-Jul-22 19:32N 60°09' E 024°55'0 0.1
2014-Jul-22 18:33N 60°09' E 024°55'2621.7
2014-Jul-22 17:23N 59°44' E 024°43'17 8.3
2014-Jul-22 15:17N 59°27' E 024°46'3116.0
2014-Jul-22 13:22N 59°57' E 024°53'1214.5
2014-Jul-22 12:33N 60°09' E 024°55'0 0.3
2014-Jul-22 11:33N 60°09' E 024°55'20 4.8
2014-Jul-22 07:24N 59°50' E 024°48'1922.9
2014-Jul-22 06:33N 60°09' E 024°55'0 0.4
2014-Jul-22 05:33N 60°09' E 024°55'0 0.0
2014-Jul-22 04:32N 60°09' E 024°55'0 0.0
2014-Jul-22 03:32N 60°09' E 024°55'0 0.0
2014-Jul-22 02:32N 60°09' E 024°55'0 0.0
2014-Jul-22 01:32N 60°09' E 024°55'0 0.0
2014-Jul-22 00:29N 60°09' E 024°55'0 0.0
2014-Jul-21 23:32N 60°09' E 024°55'0 0.0
2014-Jul-21 22:32N 60°09' E 024°55'0 0.0
2014-Jul-21 21:29N 60°09' E 024°55'0 0.0
2014-Jul-21 20:29N 60°09' E 024°55'0 0.0
2014-Jul-21 20:14N 60°09' E 024°55'0 0.0
2014-Jul-21 19:32N 60°09' E 024°55'1 1.0
2014-Jul-21 18:33N 60°08' E 024°54'2423.9
2014-Jul-21 17:33N 59°45' E 024°47'3 0.8
2014-Jul-21 14:13N 59°44' E 024°42'1218.2
2014-Jul-21 13:33N 59°55' E 024°51'1414.5
2014-Jul-21 12:33N 60°09' E 024°55'0 0.0
2014-Jul-21 11:31N 60°09' E 024°55'1212.4
2014-Jul-21 10:34N 59°57' E 024°53'2421.5
2014-Jul-21 09:28N 59°34' E 024°42'7 3.6
2014-Jul-21 07:33N 59°28' E 024°47'2020.1
2014-Jul-21 06:33N 59°48' E 024°49'2120.7
2014-Jul-21 05:33N 60°09' E 024°54'1 0.8
2014-Jul-21 04:33N 60°09' E 024°55'0 0.0
2014-Jul-21 03:33N 60°09' E 024°55'0 0.0
2014-Jul-21 02:33N 60°09' E 024°55'0 0.0
2014-Jul-21 01:30N 60°09' E 024°55'0 0.0
2014-Jul-21 00:30N 60°09' E 024°55'0 0.0
2014-Jul-20 23:33N 60°09' E 024°55'0 0.0
2014-Jul-20 22:18N 60°09' E 024°55'0 0.0
2014-Jul-20 21:21N 60°09' E 024°55'0 0.0
2014-Jul-20 20:24N 60°09' E 024°55'0 0.0
2014-Jul-20 19:33N 60°09' E 024°55'0 0.3
2014-Jul-20 18:33N 60°09' E 024°55'2520.4
2014-Jul-20 17:19N 59°44' E 024°47'17 8.4
2014-Jul-20 15:15N 59°27' E 024°46'1014.1
2014-Jul-20 14:31N 59°37' E 024°40'1816.9
2014-Jul-20 13:28N 59°54' E 024°50'1516.8
2014-Jul-20 12:34N 60°09' E 024°55'1 0.6
2014-Jul-20 11:29N 60°09' E 024°55'4010.1
2014-Jul-20 07:30N 59°29' E 024°45'1919.9
2014-Jul-20 06:32N 59°48' E 024°46'2020.7
2014-Jul-20 05:33N 60°08' E 024°54'1 1.2
2014-Jul-20 04:32N 60°09' E 024°55'0 0.0
2014-Jul-20 03:32N 60°09' E 024°55'0 0.0
2014-Jul-20 02:32N 60°09' E 024°55'0 0.0
2014-Jul-20 01:32N 60°09' E 024°55'0 0.0
2014-Jul-20 00:32N 60°09' E 024°55'0 0.0
2014-Jul-19 23:26N 60°09' E 024°55'0 0.0
2014-Jul-19 22:29N 60°09' E 024°55'0 0.0
2014-Jul-19 21:32N 60°09' E 024°55'0 0.0
2014-Jul-19 20:32N 60°09' E 024°55'0 0.0
2014-Jul-19 19:29N 60°09' E 024°55'0 0.5
2014-Jul-19 18:33N 60°09' E 024°55'2121.5
2014-Jul-19 17:34N 59°48' E 024°49'20 8.3
2014-Jul-19 15:08N 59°28' E 024°47'1016.5
2014-Jul-19 14:34N 59°36' E 024°40'1717.2
2014-Jul-19 13:33N 59°53' E 024°49'1616.1
2014-Jul-19 12:33N 60°09' E 024°55'1 0.6
2014-Jul-19 11:32N 60°09' E 024°55'1816.5
2014-Jul-19 10:25N 59°51' E 024°50'2225.5
2014-Jul-19 09:34N 59°29' E 024°46'2 1.0
2014-Jul-19 07:33N 59°31' E 024°44'2120.9
2014-Jul-19 06:33N 59°51' E 024°49'1817.9
2014-Jul-19 05:33N 60°09' E 024°55'0 0.1
2014-Jul-19 04:33N 60°09' E 024°55'0 0.0
2014-Jul-19 03:33N 60°09' E 024°55'0 0.0
2014-Jul-19 02:33N 60°09' E 024°55'0 0.0
2014-Jul-19 01:33N 60°09' E 024°55'0 0.0
2014-Jul-19 00:30N 60°09' E 024°55'0 0.0
2014-Jul-18 23:27N 60°09' E 024°55'0 0.0
2014-Jul-18 22:30N 60°09' E 024°55'0 0.0
2014-Jul-18 21:33N 60°09' E 024°55'0 0.0
2014-Jul-18 20:27N 60°09' E 024°55'0 0.0
2014-Jul-18 19:33N 60°09' E 024°55'0 0.3
2014-Jul-18 18:33N 60°09' E 024°55'2121.2
2014-Jul-18 17:34N 59°48' E 024°46'21 8.5
2014-Jul-18 15:07N 59°28' E 024°47'  
Track history (hours):
 
Tides and Currents Weather Stations Pressure Air Temp Water Temp Dewpoint Dewpoint Depression Visibility Wind Speed Wind Dir Waves Ship Positions

Finlandia

Last reported at 2014-Jul-28 15:05 UTC. Time now 2014-Jul-28 16:25 UTC.
Position N 59°29' E 024°46'.

Length 175 m; draft 7 m.

Type: Passenger vessel. MMSI: 230628000.

Date/timePositionNaut miles runAvg speedWind from/ knotsBaromVisibWave heightAir tempDewpointWater temp
2014-Jul-28 15:05N 59°29' E 024°46'917.9
2014-Jul-28 14:33N 59°38' E 024°40'1817.6
2014-Jul-28 13:33N 59°54' E 024°52'1515.0
2014-Jul-28 12:34N 60°09' E 024°55'0 0.1
2014-Jul-28 11:32N 60°09' E 024°55'1313.7
2014-Jul-28 10:34N 59°56' E 024°53'20 5.7
2014-Jul-28 07:08N 59°37' E 024°40'1220.4
2014-Jul-28 06:34N 59°49' E 024°46'2019.8
2014-Jul-28 05:34N 60°08' E 024°54'1 1.3
2014-Jul-28 04:31N 60°09' E 024°55'0 0.0
2014-Jul-28 03:31N 60°09' E 024°55'0 0.0
2014-Jul-28 02:31N 60°09' E 024°55'0 0.0
2014-Jul-28 01:28N 60°09' E 024°55'0 0.0
2014-Jul-28 00:31N 60°09' E 024°55'0 0.0
2014-Jul-27 23:31N 60°09' E 024°55'0 0.0
2014-Jul-27 22:31N 60°09' E 024°55'0 0.0
2014-Jul-27 21:31N 60°09' E 024°55'0 0.0
2014-Jul-27 20:31N 60°09' E 024°55'0 0.0
2014-Jul-27 19:31N 60°09' E 024°55'0 0.0
2014-Jul-27 18:34N 60°09' E 024°55'1919.3
2014-Jul-27 17:34N 59°50' E 024°50'23 9.6
2014-Jul-27 15:12N 59°27' E 024°47'1116.7
2014-Jul-27 14:33N 59°37' E 024°40'1817.5
2014-Jul-27 13:33N 59°54' E 024°52'1515.1
2014-Jul-27 12:34N 60°09' E 024°55'0 0.3
2014-Jul-27 11:33N 60°09' E 024°55'1313.5
2014-Jul-27 10:33N 59°56' E 024°52'2120.7
2014-Jul-27 09:33N 59°36' E 024°41'8 3.8
2014-Jul-27 07:33N 59°29' E 024°46'2019.7
2014-Jul-27 06:34N 59°48' E 024°46'2019.9
2014-Jul-27 05:33N 60°08' E 024°54'2 1.7
2014-Jul-27 04:33N 60°09' E 024°55'0 0.0
2014-Jul-27 03:33N 60°09' E 024°55'0 0.0
2014-Jul-27 02:33N 60°09' E 024°55'0 0.0
2014-Jul-27 01:33N 60°09' E 024°55'0 0.0
2014-Jul-27 00:33N 60°09' E 024°55'0 0.0
2014-Jul-26 23:33N 60°09' E 024°55'0 0.0
2014-Jul-26 22:33N 60°09' E 024°55'0 0.0
2014-Jul-26 21:33N 60°09' E 024°55'0 0.0
2014-Jul-26 20:33N 60°09' E 024°55'0 0.0
2014-Jul-26 19:33N 60°09' E 024°55'0 0.0
2014-Jul-26 18:33N 60°09' E 024°55'1918.6
2014-Jul-26 17:33N 59°51' E 024°48'2322.7
2014-Jul-26 16:33N 59°28' E 024°46'1 1.2
2014-Jul-26 15:19N 59°27' E 024°46'1114.5
2014-Jul-26 14:33N 59°37' E 024°40'1716.9
2014-Jul-26 13:34N 59°53' E 024°52'1615.6
2014-Jul-26 12:33N 60°09' E 024°54'1 0.7
2014-Jul-26 11:32N 60°09' E 024°55'1313.1
2014-Jul-26 10:33N 59°56' E 024°53'2120.7
2014-Jul-26 09:33N 59°37' E 024°41'7 3.3
2014-Jul-26 07:33N 59°30' E 024°45'1919.5
2014-Jul-26 06:33N 59°50' E 024°47'1919.2
2014-Jul-26 05:34N 60°08' E 024°54'1 0.9
2014-Jul-26 04:32N 60°09' E 024°55'0 0.0
2014-Jul-26 03:32N 60°09' E 024°55'0 0.0
2014-Jul-26 02:32N 60°09' E 024°55'0 0.0
2014-Jul-26 01:32N 60°09' E 024°55'0 0.0
2014-Jul-26 00:32N 60°09' E 024°55'0 0.0
2014-Jul-25 23:32N 60°09' E 024°55'0 0.0
2014-Jul-25 22:32N 60°09' E 024°55'0 0.0
2014-Jul-25 21:32N 60°09' E 024°55'0 0.0
2014-Jul-25 20:26N 60°09' E 024°55'0 0.0
2014-Jul-25 19:32N 60°09' E 024°55'0 0.2
2014-Jul-25 18:33N 60°09' E 024°55'2120.8
2014-Jul-25 17:34N 59°49' E 024°45'2221.7
2014-Jul-25 16:33N 59°27' E 024°47'0 0.4
2014-Jul-25 15:21N 59°27' E 024°46'1113.7
2014-Jul-25 14:33N 59°37' E 024°40'1817.0
2014-Jul-25 13:31N 59°54' E 024°51'1515.6
2014-Jul-25 12:33N 60°09' E 024°54'1 0.7
2014-Jul-25 11:32N 60°09' E 024°55'1312.8
2014-Jul-25 10:33N 59°57' E 024°53'2120.8
2014-Jul-25 09:32N 59°37' E 024°41'5 2.5
2014-Jul-25 07:33N 59°32' E 024°43'1919.7
2014-Jul-25 06:33N 59°51' E 024°48'1818.2
2014-Jul-25 05:33N 60°09' E 024°55'0 0.5
2014-Jul-25 04:32N 60°09' E 024°55'0 0.0
2014-Jul-25 03:32N 60°09' E 024°55'0 0.0
2014-Jul-25 02:32N 60°09' E 024°55'0 0.0
2014-Jul-25 01:32N 60°09' E 024°55'0 0.0
2014-Jul-25 00:32N 60°09' E 024°55'0 0.0
2014-Jul-24 23:32N 60°09' E 024°55'0 0.0
2014-Jul-24 22:32N 60°09' E 024°55'0 0.0
2014-Jul-24 21:32N 60°09' E 024°55'0 0.0
2014-Jul-24 20:32N 60°09' E 024°55'0 0.0
2014-Jul-24 19:32N 60°09' E 024°55'2 2.6
2014-Jul-24 18:33N 60°07' E 024°54'2626.4
2014-Jul-24 17:33N 59°41' E 024°45'14 5.8
2014-Jul-24 15:13N 59°27' E 024°47'1117.2
2014-Jul-24 14:34N 59°38' E 024°40'1717.3
2014-Jul-24 13:34N 59°54' E 024°52'1514.9
2014-Jul-24 12:33N 60°09' E 024°55'0 0.2
2014-Jul-24 11:32N 60°09' E 024°55'1312.8
2014-Jul-24 10:34N 59°57' E 024°53'2120.8
2014-Jul-24 09:34N 59°37' E 024°41'7 3.2
2014-Jul-24 07:31N 59°31' E 024°44'2020.6
2014-Jul-24 06:32N 59°51' E 024°48'1918.8
2014-Jul-24 05:33N 60°09' E 024°55'0 0.4
2014-Jul-24 04:32N 60°09' E 024°55'0 0.0
2014-Jul-24 03:32N 60°09' E 024°55'0 0.0
2014-Jul-24 02:32N 60°09' E 024°55'0 0.0
2014-Jul-24 01:32N 60°09' E 024°55'0 0.0
2014-Jul-24 00:32N 60°09' E 024°55'0 0.0
2014-Jul-23 23:32N 60°09' E 024°55'0 0.0
2014-Jul-23 22:32N 60°09' E 024°55'0 0.0
2014-Jul-23 21:32N 60°09' E 024°55'0 0.0
2014-Jul-23 20:32N 60°09' E 024°55'0 0.0
2014-Jul-23 19:32N 60°09' E 024°55'0 0.3
2014-Jul-23 18:33N 60°09' E 024°55'2120.6
2014-Jul-23 17:31N 59°48' E 024°49'6 1.4
2014-Jul-23 13:33N 59°53' E 024°51'1615.8
2014-Jul-23 12:33N 60°09' E 024°54'1 0.6
2014-Jul-23 11:28N 60°09' E 024°55'16 3.2
2014-Jul-23 06:28N 59°53' E 024°51'1617.1
2014-Jul-23 05:33N 60°09' E 024°55'0 0.2
2014-Jul-23 04:32N 60°09' E 024°55'0 0.0
2014-Jul-23 03:32N 60°09' E 024°55'0 0.0
2014-Jul-23 02:32N 60°09' E 024°55'0 0.0
2014-Jul-23 01:32N 60°09' E 024°55'0 0.0
2014-Jul-23 00:32N 60°09' E 024°55'0 0.0
2014-Jul-22 23:32N 60°09' E 024°55'0 0.0
2014-Jul-22 22:32N 60°09' E 024°55'0 0.0
2014-Jul-22 21:32N 60°09' E 024°55'0 0.0
2014-Jul-22 20:29N 60°09' E 024°55'0 0.0
2014-Jul-22 19:32N 60°09' E 024°55'0 0.1
2014-Jul-22 18:33N 60°09' E 024°55'2621.7
2014-Jul-22 17:23N 59°44' E 024°43'17 8.3
2014-Jul-22 15:17N 59°27' E 024°46'3116.0
2014-Jul-22 13:22N 59°57' E 024°53'1214.5
2014-Jul-22 12:33N 60°09' E 024°55'0 0.3
2014-Jul-22 11:33N 60°09' E 024°55'20 4.8
2014-Jul-22 07:24N 59°50' E 024°48'1922.9
2014-Jul-22 06:33N 60°09' E 024°55'0 0.4
2014-Jul-22 05:33N 60°09' E 024°55'0 0.0
2014-Jul-22 04:32N 60°09' E 024°55'0 0.0
2014-Jul-22 03:32N 60°09' E 024°55'0 0.0
2014-Jul-22 02:32N 60°09' E 024°55'0 0.0
2014-Jul-22 01:32N 60°09' E 024°55'0 0.0
2014-Jul-22 00:29N 60°09' E 024°55'0 0.0
2014-Jul-21 23:32N 60°09' E 024°55'0 0.0
2014-Jul-21 22:32N 60°09' E 024°55'0 0.0
2014-Jul-21 21:29N 60°09' E 024°55'0 0.0
2014-Jul-21 20:29N 60°09' E 024°55'0 0.0
2014-Jul-21 20:14N 60°09' E 024°55'0 0.0
2014-Jul-21 19:32N 60°09' E 024°55'1 1.0
2014-Jul-21 18:33N 60°08' E 024°54'2423.9
2014-Jul-21 17:33N 59°45' E 024°47'3 0.8
2014-Jul-21 14:13N 59°44' E 024°42'1218.2
2014-Jul-21 13:33N 59°55' E 024°51'1414.5
2014-Jul-21 12:33N 60°09' E 024°55'0 0.0
2014-Jul-21 11:31N 60°09' E 024°55'1212.4
2014-Jul-21 10:34N 59°57' E 024°53'2421.5
2014-Jul-21 09:28N 59°34' E 024°42'7 3.6
2014-Jul-21 07:33N 59°28' E 024°47'2020.1
2014-Jul-21 06:33N 59°48' E 024°49'2120.7
2014-Jul-21 05:33N 60°09' E 024°54'1 0.8
2014-Jul-21 04:33N 60°09' E 024°55'0 0.0
2014-Jul-21 03:33N 60°09' E 024°55'0 0.0
2014-Jul-21 02:33N 60°09' E 024°55'0 0.0
2014-Jul-21 01:30N 60°09' E 024°55'0 0.0
2014-Jul-21 00:30N 60°09' E 024°55'0 0.0
2014-Jul-20 23:33N 60°09' E 024°55'0 0.0
2014-Jul-20 22:18N 60°09' E 024°55'0 0.0
2014-Jul-20 21:21N 60°09' E 024°55'0 0.0
2014-Jul-20 20:24N 60°09' E 024°55'0 0.0
2014-Jul-20 19:33N 60°09' E 024°55'0 0.3
2014-Jul-20 18:33N 60°09' E 024°55'2520.4
2014-Jul-20 17:19N 59°44' E 024°47'17 8.4
2014-Jul-20 15:15N 59°27' E 024°46'1014.1
2014-Jul-20 14:31N 59°37' E 024°40'1816.9
2014-Jul-20 13:28N 59°54' E 024°50'1516.8
2014-Jul-20 12:34N 60°09' E 024°55'1 0.6
2014-Jul-20 11:29N 60°09' E 024°55'4010.1
2014-Jul-20 07:30N 59°29' E 024°45'1919.9
2014-Jul-20 06:32N 59°48' E 024°46'2020.7
2014-Jul-20 05:33N 60°08' E 024°54'1 1.2
2014-Jul-20 04:32N 60°09' E 024°55'0 0.0
2014-Jul-20 03:32N 60°09' E 024°55'0 0.0
2014-Jul-20 02:32N 60°09' E 024°55'0 0.0
2014-Jul-20 01:32N 60°09' E 024°55'0 0.0
2014-Jul-20 00:32N 60°09' E 024°55'0 0.0
2014-Jul-19 23:26N 60°09' E 024°55'0 0.0
2014-Jul-19 22:29N 60°09' E 024°55'0 0.0
2014-Jul-19 21:32N 60°09' E 024°55'0 0.0
2014-Jul-19 20:32N 60°09' E 024°55'0 0.0
2014-Jul-19 19:29N 60°09' E 024°55'0 0.5
2014-Jul-19 18:33N 60°09' E 024°55'2121.5
2014-Jul-19 17:34N 59°48' E 024°49'20 8.3
2014-Jul-19 15:08N 59°28' E 024°47'1016.5
2014-Jul-19 14:34N 59°36' E 024°40'1717.2
2014-Jul-19 13:33N 59°53' E 024°49'1616.1
2014-Jul-19 12:33N 60°09' E 024°55'1 0.6
2014-Jul-19 11:32N 60°09' E 024°55'1816.5
2014-Jul-19 10:25N 59°51' E 024°50'2225.5
2014-Jul-19 09:34N 59°29' E 024°46'2 1.0
2014-Jul-19 07:33N 59°31' E 024°44'2120.9
2014-Jul-19 06:33N 59°51' E 024°49'1817.9
2014-Jul-19 05:33N 60°09' E 024°55'0 0.1
2014-Jul-19 04:33N 60°09' E 024°55'0 0.0
2014-Jul-19 03:33N 60°09' E 024°55'0 0.0
2014-Jul-19 02:33N 60°09' E 024°55'0 0.0
2014-Jul-19 01:33N 60°09' E 024°55'0 0.0
2014-Jul-19 00:30N 60°09' E 024°55'0 0.0
2014-Jul-18 23:27N 60°09' E 024°55'0 0.0
2014-Jul-18 22:30N 60°09' E 024°55'0 0.0
2014-Jul-18 21:33N 60°09' E 024°55'0 0.0
2014-Jul-18 20:27N 60°09' E 024°55'0 0.0
2014-Jul-18 19:33N 60°09' E 024°55'0 0.3
2014-Jul-18 18:33N 60°09' E 024°55'2121.2
2014-Jul-18 17:34N 59°48' E 024°46'21 8.5
2014-Jul-18 15:07N 59°28' E 024°47'  

Dump ship's entire track history